Terminal Aerodrome Forecast
Issued by NWS

Home | Current Version | Previous Version | Text Only | Print | Product List | Glossary On
Versions: 1 2 3 4 5 6 7 8 9 10 11 12 13 14
000
FTUS45 KRIW 311122
TAFRKS
TAF
KRKS 311122Z 3112/0112 19006KT P6SM FEW120
     FM312100 26013G21KT P6SM VCTS SCT080CB
     FM010200 23009KT P6SM SCT100
     FM010600 19006KT P6SM FEW120=

USA.gov is the U.S. government's official web portal to all federal, state and local government web resources and services.